Time;durP1;ratioP1;P1;durP2;ratioP2;P2;SDS_P1;SDS_P2;PMS_P1;PMS_P2;Temp;Humidity;BMP_temperature;BMP_pressure;BME280_temperature;BME280_humidity;BME280_pressure;Samples;Min_cycle;Max_cycle;Signal;HPM_P1;HPM_P2
2023/10/06 00:01:57;;;;;;;;;;;;;;;14.10;100.00;102219.19;4982754;28;19934;-84
2023/10/06 00:04:42;;;;;;;;;;;;;;;14.12;100.00;102208.47;4978587;28;19930;-84
2023/10/06 00:07:28;;;;;;;;;;;;;;;14.13;100.00;102207.56;4985916;28;20407;-86
2023/10/06 00:10:19;;;;;;;;;;;;;;;14.13;100.00;102215.53;4980990;28;20285;-84
2023/10/06 00:13:06;;;;;;;;;;;;;;;14.14;100.00;102217.28;4972012;28;20067;-84
2023/10/06 00:15:52;;;;;;;;;;;;;;;14.13;100.00;102210.22;4988199;28;20334;-85
2023/10/06 00:18:41;;;;;;;;;;;;;;;14.12;100.00;102203.16;5001873;28;19949;-84
2023/10/06 00:21:29;;;;;;;;;;;;;;;14.12;100.00;102219.13;4983087;28;19930;-85
2023/10/06 00:24:14;;;;;;;;;;;;;;;14.13;100.00;102215.53;4982120;28;19925;-86
2023/10/06 00:27:00;;;;;;;;;;;;;;;14.12;100.00;102225.31;4988409;28;19930;-83
2023/10/06 00:29:53;;;;;;;;;;;;;;;14.12;100.00;102208.47;4985318;28;19934;-84
2023/10/06 00:32:42;;;;;;;;;;;;;;;14.13;100.00;102202.22;4980306;28;20429;-83
2023/10/06 00:35:30;;;;;;;;;;;;;;;14.12;100.00;102214.66;4979593;28;20155;-85
2023/10/06 00:38:16;;;;;;;;;;;;;;;14.13;100.00;102210.22;4971099;28;19930;-86
2023/10/06 00:41:07;;;;;;;;;;;;;;;14.13;100.00;102207.56;4992834;28;19938;-86
2023/10/06 00:43:54;;;;;;;;;;;;;;;14.13;100.00;102200.41;4984642;28;19977;-84
2023/10/06 00:46:43;;;;;;;;;;;;;;;14.15;100.00;102204.84;4982783;28;19936;-83
2023/10/06 00:49:28;;;;;;;;;;;;;;;14.16;100.00;102196.75;4987060;28;19956;-85
2023/10/06 00:52:15;;;;;;;;;;;;;;;14.16;100.00;102180.78;4981152;28;19929;-85
2023/10/06 00:55:05;;;;;;;;;;;;;;;14.17;100.00;102185.19;4977847;28;19937;-86
2023/10/06 00:57:56;;;;;;;;;;;;;;;14.16;100.00;102175.47;4983277;28;19930;-84
2023/10/06 01:00:42;;;;;;;;;;;;;;;14.17;100.00;102173.69;4984004;28;19972;-84
2023/10/06 01:03:27;;;;;;;;;;;;;;;14.18;100.00;102167.41;4981180;28;20004;-85
2023/10/06 01:06:14;;;;;;;;;;;;;;;14.18;100.00;102176.28;4978205;28;21580;-84
2023/10/06 01:09:17;;;;;;;;;;;;;;;14.18;100.00;102168.28;4980942;28;19930;-85
2023/10/06 01:12:10;;;;;;;;;;;;;;;14.19;100.00;102156.72;4966765;28;20007;-84
2023/10/06 01:15:15;;;;;;;;;;;;;;;14.19;100.00;102164.69;4981654;28;19981;-85
2023/10/06 01:18:06;;;;;;;;;;;;;;;14.19;100.00;102154.03;4981560;28;19921;-85
2023/10/06 01:20:52;;;;;;;;;;;;;;;14.19;100.00;102156.72;4982114;28;19930;-84
2023/10/06 01:23:38;;;;;;;;;;;;;;;14.20;100.00;102155.78;4978158;28;20805;-84
2023/10/06 01:26:24;;;;;;;;;;;;;;;14.22;100.00;102161.91;4979573;28;19926;-84
2023/10/06 01:29:10;;;;;;;;;;;;;;;14.22;100.00;102153.91;4981887;28;19961;-83
2023/10/06 01:31:56;;;;;;;;;;;;;;;14.22;100.00;102145.06;4978936;28;19988;-84
2023/10/06 01:34:44;;;;;;;;;;;;;;;14.23;100.00;102141.47;4984398;28;20413;-84
2023/10/06 01:37:30;;;;;;;;;;;;;;;14.22;100.00;102145.91;4980602;28;19937;-85
2023/10/06 01:43:29;;;;;;;;;;;;;;;14.20;100.00;102129.16;4980551;28;19934;-85
2023/10/06 01:46:15;;;;;;;;;;;;;;;14.21;100.00;102114.91;4978874;28;19937;-83
2023/10/06 01:49:01;;;;;;;;;;;;;;;14.22;100.00;102118.44;4980979;28;20021;-85
2023/10/06 01:51:47;;;;;;;;;;;;;;;14.22;100.00;102121.09;4979585;28;19945;-84
2023/10/06 01:54:36;;;;;;;;;;;;;;;14.22;100.00;102121.94;4983040;28;19964;-86
2023/10/06 01:57:24;;;;;;;;;;;;;;;14.21;100.00;102125.53;4981802;28;20013;-85
2023/10/06 02:00:22;;;;;;;;;;;;;;;14.20;100.00;102123.81;4987255;28;19936;-85
2023/10/06 02:03:10;;;;;;;;;;;;;;;14.20;100.00;102134.47;4967063;28;19941;-84
2023/10/06 02:05:59;;;;;;;;;;;;;;;14.19;100.00;102135.41;4995083;28;20032;-84
2023/10/06 02:08:52;;;;;;;;;;;;;;;14.19;100.00;102132.75;5009074;28;19942;-83
2023/10/06 02:11:38;;;;;;;;;;;;;;;14.19;100.00;102131.84;4991125;28;19933;-83
2023/10/06 02:14:23;;;;;;;;;;;;;;;14.18;100.00;102131.00;4976586;28;19929;-85
2023/10/06 02:17:11;;;;;;;;;;;;;;;14.16;100.00;102138.16;5015886;23;19988;-85
2023/10/06 02:19:57;;;;;;;;;;;;;;;14.14;100.00;102137.38;4946542;28;19953;-83
2023/10/06 02:22:42;;;;;;;;;;;;;;;14.13;100.00;102135.66;4944816;28;20013;-82
2023/10/06 02:25:29;;;;;;;;;;;;;;;14.11;100.00;102124.19;4933896;28;20685;-83
2023/10/06 02:28:15;;;;;;;;;;;;;;;14.10;100.00;102119.78;4933491;28;19942;-84
2023/10/06 02:31:05;;;;;;;;;;;;;;;14.09;100.00;102110.06;4946581;28;19926;-84
2023/10/06 02:33:51;;;;;;;;;;;;;;;14.06;100.00;102102.22;4921750;28;20013;-84
2023/10/06 02:36:37;;;;;;;;;;;;;;;14.04;100.00;102090.72;4932313;28;20032;-82
2023/10/06 02:39:27;;;;;;;;;;;;;;;14.01;100.00;102091.75;4946585;28;19926;-83
2023/10/06 02:42:14;;;;;;;;;;;;;;;13.98;100.00;102084.75;4922418;28;19926;-83
2023/10/06 02:45:00;;;;;;;;;;;;;;;13.96;100.00;102094.56;4934864;28;19972;-83
2023/10/06 02:47:45;;;;;;;;;;;;;;;13.93;100.00;102086.72;4946331;28;19997;-84
2023/10/06 02:50:33;;;;;;;;;;;;;;;13.93;100.00;102081.41;4932815;28;19940;-85
2023/10/06 02:53:23;;;;;;;;;;;;;;;13.91;100.00;102079.72;4946926;28;19934;-84
2023/10/06 02:56:09;;;;;;;;;;;;;;;13.90;100.00;102075.31;4933765;28;20432;-84
2023/10/06 02:58:59;;;;;;;;;;;;;;;13.88;100.00;102063.88;4946000;28;19937;-83
2023/10/06 03:01:51;;;;;;;;;;;;;;;13.86;100.00;102066.59;4933397;28;20515;-83
2023/10/06 03:04:36;;;;;;;;;;;;;;;13.84;100.00;102063.13;4947170;28;20581;-83
2023/10/06 03:07:22;;;;;;;;;;;;;;;13.81;100.00;102064.13;4947205;28;20361;-85
2023/10/06 03:10:08;;;;;;;;;;;;;;;13.79;100.00;102065.13;4946695;28;19941;-84
2023/10/06 03:12:57;;;;;;;;;;;;;;;13.76;100.00;102049.25;4933703;28;19942;-85
2023/10/06 03:15:45;;;;;;;;;;;;;;;13.77;100.00;102061.66;4937535;28;20566;-83
2023/10/06 03:18:31;;;;;;;;;;;;;;;13.76;100.00;102049.25;4902974;29;19927;-84
2023/10/06 03:21:18;;;;;;;;;;;;;;;13.77;100.00;102038.56;4904637;29;19954;-84
2023/10/06 03:24:05;;;;;;;;;;;;;;;13.79;100.00;102043.81;4906695;29;19935;-83
2023/10/06 03:26:51;;;;;;;;;;;;;;;13.79;100.00;102049.13;4914206;29;19931;-84
2023/10/06 03:32:39;;;;;;;;;;;;;;;13.79;100.00;102054.47;4903482;29;19946;-83
2023/10/06 03:35:35;;;;;;;;;;;;;;;13.81;100.00;102052.59;4912550;28;20147;-85
2023/10/06 03:41:12;;;;;;;;;;;;;;;13.81;100.00;102057.91;4907714;29;19930;-83
2023/10/06 03:44:00;;;;;;;;;;;;;;;13.81;100.00;102060.59;4919855;29;20570;-84
2023/10/06 03:46:46;;;;;;;;;;;;;;;13.80;100.00;102057.06;4921825;29;21911;-83
2023/10/06 03:49:33;;;;;;;;;;;;;;;13.82;100.00;102057.88;4906449;29;19937;-83
2023/10/06 03:52:19;;;;;;;;;;;;;;;13.84;100.00;102052.50;4904742;29;19927;-84
2023/10/06 03:55:06;;;;;;;;;;;;;;;13.87;100.00;102054.13;4919396;29;19935;-81
2023/10/06 03:57:52;;;;;;;;;;;;;;;13.87;100.00;102047.03;4919150;29;19927;-84
2023/10/06 04:00:49;;;;;;;;;;;;;;;13.89;100.00;102039.84;4907571;28;20363;-85
2023/10/06 04:03:35;;;;;;;;;;;;;;;13.91;100.00;102053.09;4921873;28;20458;-84
2023/10/06 04:06:23;;;;;;;;;;;;;;;13.92;100.00;102053.03;4905828;29;20202;-84
2023/10/06 04:09:11;;;;;;;;;;;;;;;13.94;100.00;102050.31;4921279;29;19931;-85
2023/10/06 04:12:01;;;;;;;;;;;;;;;13.94;100.00;102037.03;4913178;28;20391;-83
2023/10/06 04:14:47;;;;;;;;;;;;;;;13.95;100.00;102039.59;4903963;29;19926;-84
2023/10/06 04:17:36;;;;;;;;;;;;;;;13.95;100.00;102036.09;4935669;28;20038;-84
2023/10/06 04:20:22;;;;;;;;;;;;;;;13.96;100.00;102029.81;4936061;28;20065;-84
2023/10/06 04:23:07;;;;;;;;;;;;;;;13.95;100.00;102034.28;4924670;28;20042;-83
2023/10/06 04:26:01;;;;;;;;;;;;;;;13.94;100.00;102027.22;4931114;28;19922;-84
2023/10/06 04:28:47;;;;;;;;;;;;;;;13.93;100.00;102020.16;4945801;28;19937;-83
2023/10/06 04:31:33;;;;;;;;;;;;;;;13.91;100.00;102027.34;4945148;28;20013;-83
2023/10/06 04:34:22;;;;;;;;;;;;;;;13.91;100.00;102029.13;4945804;28;19930;-83
2023/10/06 04:37:08;;;;;;;;;;;;;;;13.89;100.00;102026.53;4946539;28;19957;-83
2023/10/06 04:39:54;;;;;;;;;;;;;;;13.87;100.00;102028.41;4918301;28;19933;-83
2023/10/06 04:42:42;;;;;;;;;;;;;;;13.86;100.00;102024.00;4922484;28;20346;-84
2023/10/06 04:45:31;;;;;;;;;;;;;;;13.85;100.00;102031.13;4921737;28;19969;-82
2023/10/06 04:48:21;;;;;;;;;;;;;;;13.84;100.00;102024.06;4944636;28;19938;-82
2023/10/06 04:51:09;;;;;;;;;;;;;;;13.85;100.00;102024.94;4936592;28;19937;-83
2023/10/06 04:53:55;;;;;;;;;;;;;;;13.84;100.00;102015.22;4929676;28;19949;-81
2023/10/06 04:56:40;;;;;;;;;;;;;;;13.84;100.00;102012.56;4942942;28;19934;-83
2023/10/06 04:59:26;;;;;;;;;;;;;;;13.84;100.00;102008.09;4944846;28;20016;-84
2023/10/06 05:02:11;;;;;;;;;;;;;;;13.86;100.00;102002.72;4944455;28;19926;-83
2023/10/06 05:04:57;;;;;;;;;;;;;;;13.85;100.00;101998.31;4945939;28;20052;-83
2023/10/06 05:07:45;;;;;;;;;;;;;;;13.85;100.00;102004.50;4945140;28;19926;-83
2023/10/06 05:10:31;;;;;;;;;;;;;;;13.87;100.00;102008.88;4945619;28;19945;-84
2023/10/06 05:13:17;;;;;;;;;;;;;;;13.89;100.00;101989.25;4930029;28;20546;-84
2023/10/06 05:16:03;;;;;;;;;;;;;;;13.89;100.00;101991.94;4936522;28;20580;-84
2023/10/06 05:18:49;;;;;;;;;;;;;;;13.91;100.00;101975.91;4943399;28;19941;-83
2023/10/06 05:21:36;;;;;;;;;;;;;;;13.91;100.00;101984.75;4928155;28;20001;-83
2023/10/06 05:24:22;;;;;;;;;;;;;;;13.90;100.00;101985.66;4945542;28;19931;-83
2023/10/06 05:27:07;;;;;;;;;;;;;;;13.89;100.00;101977.78;4942137;28;19933;-85
2023/10/06 05:29:54;;;;;;;;;;;;;;;13.88;100.00;101971.56;4922517;28;20427;-83
2023/10/06 05:32:43;;;;;;;;;;;;;;;13.90;100.00;101984.81;4944785;28;19941;-84
2023/10/06 05:35:36;;;;;;;;;;;;;;;13.89;100.00;101981.28;4924870;28;19934;-85
2023/10/06 05:38:21;;;;;;;;;;;;;;;13.90;100.00;101974.19;4942562;28;19926;-84
2023/10/06 05:41:11;;;;;;;;;;;;;;;13.89;100.00;101973.28;4944308;28;19935;-83
2023/10/06 05:43:58;;;;;;;;;;;;;;;13.90;100.00;101976.84;4943325;28;19945;-84
2023/10/06 05:46:43;;;;;;;;;;;;;;;13.90;100.00;101971.50;4937180;28;20526;-84
2023/10/06 05:49:32;;;;;;;;;;;;;;;13.90;100.00;101977.69;4932110;28;21860;-85
2023/10/06 05:52:20;;;;;;;;;;;;;;;13.92;100.00;101970.53;4945454;28;20331;-83
2023/10/06 05:55:09;;;;;;;;;;;;;;;13.94;100.00;101973.13;4944322;28;20069;-83
2023/10/06 05:57:55;;;;;;;;;;;;;;;13.96;100.00;101966.78;4943643;28;19930;-83
2023/10/06 06:00:56;;;;;;;;;;;;;;;13.96;100.00;101972.09;4944130;28;20334;-84
2023/10/06 06:03:49;;;;;;;;;;;;;;;13.95;100.00;101978.38;4944107;28;19926;-83
2023/10/06 06:06:37;;;;;;;;;;;;;;;13.95;100.00;101967.72;4944412;28;20350;-83
2023/10/06 06:09:27;;;;;;;;;;;;;;;13.94;100.00;101976.63;4943518;28;19926;-83
2023/10/06 06:12:12;;;;;;;;;;;;;;;13.94;100.00;101970.47;4943752;28;21945;-82
2023/10/06 06:14:59;;;;;;;;;;;;;;;13.93;100.00;101968.72;4947150;28;19946;-82
2023/10/06 06:17:44;;;;;;;;;;;;;;;13.92;100.00;101969.66;4946689;28;19934;-85
2023/10/06 06:20:30;;;;;;;;;;;;;;;13.93;100.00;101982.00;4933931;28;19937;-84
2023/10/06 06:23:16;;;;;;;;;;;;;;;13.93;100.00;101985.56;4930053;28;19930;-82
2023/10/06 06:26:02;;;;;;;;;;;;;;;13.95;100.00;101996.16;4946052;28;19953;-82
2023/10/06 06:28:47;;;;;;;;;;;;;;;13.94;100.00;101997.09;4934498;28;19930;-81
2023/10/06 06:31:33;;;;;;;;;;;;;;;13.95;100.00;101996.16;4933032;28;19930;-81
2023/10/06 06:34:19;;;;;;;;;;;;;;;13.96;100.00;101998.72;4935368;28;19946;-83
2023/10/06 06:37:09;;;;;;;;;;;;;;;13.97;100.00;101995.16;4946331;28;19930;-83
2023/10/06 06:39:55;;;;;;;;;;;;;;;13.99;100.00;101998.63;4933083;28;19930;-83
2023/10/06 06:42:40;;;;;;;;;;;;;;;14.01;100.00;102001.22;4945848;28;19934;-83
2023/10/06 06:45:28;;;;;;;;;;;;;;;14.02;100.00;102000.28;4934757;28;19933;-82
2023/10/06 06:48:13;;;;;;;;;;;;;;;14.02;100.00;102005.63;4923478;28;20481;-83
2023/10/06 06:50:59;;;;;;;;;;;;;;;13.99;100.00;102009.28;4946514;28;19935;-85
2023/10/06 06:53:45;;;;;;;;;;;;;;;13.97;100.00;102005.81;4946036;28;19930;-82
2023/10/06 06:56:31;;;;;;;;;;;;;;;13.96;100.00;102009.38;4947116;28;20005;-83
2023/10/06 06:59:19;;;;;;;;;;;;;;;13.94;100.00;102015.72;4947516;28;19991;-83
2023/10/06 07:02:04;;;;;;;;;;;;;;;13.95;100.00;102017.44;4944619;28;20387;-83
2023/10/06 07:04:51;;;;;;;;;;;;;;;13.95;100.00;102012.13;4947883;28;19930;-82
2023/10/06 07:07:37;;;;;;;;;;;;;;;13.93;100.00;102006.84;4947245;28;20013;-83
2023/10/06 07:10:22;;;;;;;;;;;;;;;13.94;100.00;102011.25;4947244;28;20457;-83
2023/10/06 07:13:09;;;;;;;;;;;;;;;13.94;100.00;102016.56;4947164;28;19980;-83
2023/10/06 07:15:56;;;;;;;;;;;;;;;13.93;100.00;102004.19;4934419;28;20396;-82
2023/10/06 07:18:42;;;;;;;;;;;;;;;13.93;100.00;102001.53;4946831;28;19934;-82
2023/10/06 07:21:28;;;;;;;;;;;;;;;13.96;100.00;102001.38;4933399;28;20393;-82
2023/10/06 07:24:13;;;;;;;;;;;;;;;13.98;100.00;101991.56;4931902;28;19930;-82
2023/10/06 07:26:59;;;;;;;;;;;;;;;14.02;100.00;102010.06;4932638;28;19941;-82
2023/10/06 07:29:45;;;;;;;;;;;;;;;14.05;100.00;102001.97;4933393;28;20523;-82
2023/10/06 07:32:31;;;;;;;;;;;;;;;14.07;100.00;102003.63;4938447;28;19937;-82
2023/10/06 07:35:17;;;;;;;;;;;;;;;14.10;100.00;102006.16;4946025;28;20037;-82
2023/10/06 07:38:03;;;;;;;;;;;;;;;14.14;100.00;101998.91;4924863;28;19980;-82
2023/10/06 07:40:49;;;;;;;;;;;;;;;14.19;100.00;102004.91;4931492;28;19930;-82
2023/10/06 07:43:34;;;;;;;;;;;;;;;14.24;100.00;102000.25;4933439;28;19961;-81
2023/10/06 07:46:20;;;;;;;;;;;;;;;14.29;100.00;102002.72;4944321;28;19930;-81
2023/10/06 07:49:06;;;;;;;;;;;;;;;14.33;100.00;102009.63;4944981;28;19942;-81
2023/10/06 07:51:51;;;;;;;;;;;;;;;14.37;100.00;102013.91;4924108;28;20273;-82
2023/10/06 07:54:37;;;;;;;;;;;;;;;14.40;100.00;102010.25;4925019;28;20374;-81
2023/10/06 07:57:23;;;;;;;;;;;;;;;14.44;100.00;102014.50;4918083;28;19934;-82
2023/10/06 08:00:09;;;;;;;;;;;;;;;14.47;100.00;102022.38;4938615;28;19934;-82
2023/10/06 08:02:55;;;;;;;;;;;;;;;14.51;100.00;102005.28;4928153;28;19937;-82
2023/10/06 08:05:41;;;;;;;;;;;;;;;14.57;100.00;102014.84;4934962;28;19927;-82
2023/10/06 08:08:28;;;;;;;;;;;;;;;14.62;100.00;102015.50;4918927;28;20053;-82
2023/10/06 08:11:16;;;;;;;;;;;;;;;14.71;100.00;102016.88;4947248;28;19961;-82
2023/10/06 08:14:03;;;;;;;;;;;;;;;14.79;100.00;102025.47;4935866;28;22276;-82
2023/10/06 08:16:49;;;;;;;;;;;;;;;14.88;100.00;102023.31;4916313;28;21196;-80
2023/10/06 08:19:35;;;;;;;;;;;;;;;14.94;100.00;102023.88;4944247;28;19941;-80
2023/10/06 08:22:24;;;;;;;;;;;;;;;15.01;100.00;102019.16;4931156;28;19969;-81
2023/10/06 08:25:09;;;;;;;;;;;;;;;15.09;100.00;102020.59;4945089;28;20528;-80
2023/10/06 08:27:55;;;;;;;;;;;;;;;15.16;100.00;102011.38;4929143;28;20593;-80
2023/10/06 08:30:45;;;;;;;;;;;;;;;15.23;100.00;102018.16;4933244;28;19930;-80
2023/10/06 08:33:31;;;;;;;;;;;;;;;15.28;100.00;102024.16;4916504;28;19989;-81
2023/10/06 08:36:17;;;;;;;;;;;;;;;15.33;100.00;102022.13;4918665;28;19930;-80
2023/10/06 08:39:03;;;;;;;;;;;;;;;15.38;100.00;102013.91;4943976;28;19930;-80
2023/10/06 08:41:49;;;;;;;;;;;;;;;15.45;100.00;102019.81;4945495;28;20386;-80
2023/10/06 08:44:36;;;;;;;;;;;;;;;15.48;100.00;102020.53;4937688;28;19930;-81
2023/10/06 08:47:22;;;;;;;;;;;;;;;15.52;100.00;102009.72;4937355;28;19989;-81
2023/10/06 08:50:08;;;;;;;;;;;;;;;15.55;100.00;102004.22;4931888;28;19930;-82
2023/10/06 08:52:55;;;;;;;;;;;;;;;15.57;100.00;102003.22;4944332;28;19988;-81
2023/10/06 08:55:44;;;;;;;;;;;;;;;15.58;100.00;102004.09;4942487;28;20341;-81
2023/10/06 08:58:29;;;;;;;;;;;;;;;15.56;100.00;102003.28;4917171;28;19978;-81
2023/10/06 09:01:15;;;;;;;;;;;;;;;15.54;100.00;101999.81;4941973;28;19948;-79
2023/10/06 09:04:02;;;;;;;;;;;;;;;15.55;100.00;102009.56;4934569;28;19978;-80
2023/10/06 09:07:11;;;;;;;;;;;;;;;15.57;100.00;102005.88;4914771;28;21917;-81
2023/10/06 09:10:12;;;;;;;;;;;;;;;15.59;100.00;102001.31;4941844;28;19989;-79
2023/10/06 09:13:00;;;;;;;;;;;;;;;15.64;100.00;102001.13;4922586;28;19936;-80
2023/10/06 09:16:02;;;;;;;;;;;;;;;15.68;100.00;102007.19;4926279;28;19931;-80
2023/10/06 09:18:57;;;;;;;;;;;;;;;15.74;100.00;102009.53;4942819;28;19927;-81
2023/10/06 09:22:02;;;;;;;;;;;;;;;15.80;100.00;102011.03;4930351;28;20032;-80
2023/10/06 09:25:02;;;;;;;;;;;;;;;15.84;100.00;102017.94;4944423;28;20409;-81
2023/10/06 09:27:48;;;;;;;;;;;;;;;15.86;100.00;102014.25;4931370;28;19927;-81
2023/10/06 09:30:57;;;;;;;;;;;;;;;15.89;100.00;102002.56;4930248;28;19937;-82
2023/10/06 09:33:43;;;;;;;;;;;;;;;15.94;100.00;102002.38;4944790;28;19926;-81
2023/10/06 09:36:30;;;;;;;;;;;;;;;16.02;100.00;101994.88;4930016;28;19941;-80
2023/10/06 09:39:32;;;;;;;;;;;;;;;16.12;100.00;102001.44;4943555;28;19981;-82
2023/10/06 09:42:18;;;;;;;;;;;;;;;16.20;100.00;101985.03;4927979;28;19933;-80
2023/10/06 09:45:06;;;;;;;;;;;;;;;16.25;100.00;101987.47;4936682;28;19970;-80
2023/10/06 09:47:56;;;;;;;;;;;;;;;16.26;100.00;101991.88;4945521;28;20704;-81
2023/10/06 09:50:43;;;;;;;;;;;;;;;16.31;100.00;102002.31;4946835;28;19962;-82
2023/10/06 09:53:30;;;;;;;;;;;;;;;16.33;100.00;102006.63;4935445;28;19941;-81
2023/10/06 09:56:17;;;;;;;;;;;;;;;16.35;100.00;102011.91;4921532;28;19930;-80
2023/10/06 09:59:04;;;;;;;;;;;;;;;16.39;100.00;102008.13;4934066;28;19926;-81
2023/10/06 10:01:51;;;;;;;;;;;;;;;16.45;100.00;102012.31;4933214;28;20013;-81
2023/10/06 10:04:37;;;;;;;;;;;;;;;16.52;100.00;102000.34;4931631;28;19954;-80
2023/10/06 10:07:23;;;;;;;;;;;;;;;16.58;100.00;102002.69;4947051;28;19926;-81
2023/10/06 10:10:10;;;;;;;;;;;;;;;16.63;100.00;102000.66;4946055;28;20001;-80
2023/10/06 10:13:26;;;;;;;;;;;;;;;16.69;100.00;102000.31;4918499;28;19927;-81
2023/10/06 10:16:30;;;;;;;;;;;;;;;16.77;100.00;102009.75;4943097;28;19934;-81
2023/10/06 10:19:16;;;;;;;;;;;;;;;16.87;100.00;102004.75;4946513;28;19927;-80
2023/10/06 10:22:03;;;;;;;;;;;;;;;16.96;100.00;101986.38;4930976;28;20466;-82
2023/10/06 10:24:49;;;;;;;;;;;;;;;17.04;100.00;101988.69;4921387;28;19958;-82
2023/10/06 10:27:37;;;;;;;;;;;;;;;17.07;100.00;101998.38;4925891;28;19927;-82
2023/10/06 10:30:43;;;;;;;;;;;;;;;17.09;100.00;101981.28;4947806;28;19937;-81
2023/10/06 10:33:35;;;;;;;;;;;;;;;17.15;100.00;101989.94;4948790;28;20473;-82
2023/10/06 10:36:21;;;;;;;;;;;;;;;17.21;100.00;101973.53;4933882;28;19931;-80
2023/10/06 10:39:09;;;;;;;;;;;;;;;17.24;100.00;101984.06;4946569;28;19961;-81
2023/10/06 10:41:57;;;;;;;;;;;;;;;17.31;100.00;101985.44;4947762;28;20361;-81
2023/10/06 10:44:44;;;;;;;;;;;;;;;17.31;100.00;101984.56;4935020;28;19926;-81
2023/10/06 10:47:31;;;;;;;;;;;;;;;17.32;100.00;101972.94;4935520;28;20068;-82
2023/10/06 10:50:17;;;;;;;;;;;;;;;17.33;100.00;101963.94;4946060;28;19930;-83
2023/10/06 10:53:03;;;;;;;;;;;;;;;17.32;100.00;101954.19;4939803;28;19929;-81
2023/10/06 10:55:49;;;;;;;;;;;;;;;17.32;100.00;101962.22;4936376;28;19930;-84
2023/10/06 10:58:44;;;;;;;;;;;;;;;17.35;100.00;101960.25;4918927;28;19966;-82
2023/10/06 11:01:31;;;;;;;;;;;;;;;17.37;100.00;101957.44;4938966;28;19937;-83
2023/10/06 11:07:14;;;;;;;;;;;;;;;17.39;100.00;101944.88;4933258;28;19930;-81
2023/10/06 11:10:01;;;;;;;;;;;;;;;17.40;100.00;101949.25;4939304;28;20382;-81
2023/10/06 11:12:46;;;;;;;;;;;;;;;17.44;100.00;101945.44;4946478;28;19992;-81
2023/10/06 11:15:32;;;;;;;;;;;;;;;17.48;100.00;101940.78;4946278;28;20021;-81
2023/10/06 11:18:20;;;;;;;;;;;;;;;17.50;100.00;101944.25;4946546;28;19927;-81
2023/10/06 11:21:06;;;;;;;;;;;;;;;17.54;100.00;101961.84;4931599;28;20381;-80
2023/10/06 11:23:51;;;;;;;;;;;;;;;17.60;100.00;101931.19;4933779;28;20386;-81
2023/10/06 11:26:38;;;;;;;;;;;;;;;17.65;100.00;101931.75;4936639;28;19953;-79
2023/10/06 11:29:28;;;;;;;;;;;;;;;17.70;100.00;101915.44;4945377;28;19937;-79
2023/10/06 11:32:13;;;;;;;;;;;;;;;17.73;100.00;101921.50;4931839;28;19986;-80
2023/10/06 11:34:59;;;;;;;;;;;;;;;17.80;100.00;101923.81;4945513;28;20029;-80
2023/10/06 11:37:45;;;;;;;;;;;;;;;17.84;100.00;101920.84;4945601;28;19941;-81
2023/10/06 11:40:32;;;;;;;;;;;;;;;17.88;100.00;101918.84;4933269;28;19965;-85
2023/10/06 11:43:18;;;;;;;;;;;;;;;17.86;100.00;101915.41;4931256;28;19930;-81
2023/10/06 11:46:05;;;;;;;;;;;;;;;17.86;100.00;101920.78;4945637;28;19930;-82
2023/10/06 11:48:52;;;;;;;;;;;;;;;17.90;100.00;101911.56;4929845;28;19934;-82
2023/10/06 11:51:40;;;;;;;;;;;;;;;17.95;100.00;101925.56;4944499;28;19952;-81
2023/10/06 11:54:28;;;;;;;;;;;;;;;18.00;100.00;101918.13;4946584;28;19930;-81
2023/10/06 11:57:14;;;;;;;;;;;;;;;18.04;100.00;101919.66;4919863;28;19997;-81
2023/10/06 11:59:59;;;;;;;;;;;;;;;18.03;100.00;101922.44;4945193;28;19960;-83
2023/10/06 12:02:45;;;;;;;;;;;;;;;18.05;100.00;101917.88;4932060;28;20036;-81
2023/10/06 12:05:31;;;;;;;;;;;;;;;18.06;100.00;101906.19;4937226;28;20653;-83
2023/10/06 12:08:16;;;;;;;;;;;;;;;18.14;100.00;101900.38;4930570;28;19926;-83
2023/10/06 12:11:03;;;;;;;;;;;;;;;18.28;100.00;101905.75;4944102;28;19942;-81
2023/10/06 12:13:52;;;;;;;;;;;;;;;18.42;100.00;101910.25;4946796;28;19934;-81
2023/10/06 12:16:37;;;;;;;;;;;;;;;18.48;100.00;101909.03;4944229;28;19931;-82
2023/10/06 12:19:26;;;;;;;;;;;;;;;18.53;100.00;101906.88;4943529;28;19984;-83
2023/10/06 12:22:11;;;;;;;;;;;;;;;18.55;100.00;101917.53;4930905;28;19934;-83
2023/10/06 12:25:00;;;;;;;;;;;;;;;18.56;100.00;101925.47;4931525;28;19993;-82
2023/10/06 12:27:45;;;;;;;;;;;;;;;18.59;100.00;101917.22;4931902;28;19930;-84
2023/10/06 12:30:31;;;;;;;;;;;;;;;18.58;100.00;101912.84;4924543;28;19926;-82
2023/10/06 12:33:16;;;;;;;;;;;;;;;18.57;100.00;101919.16;4945316;28;19977;-82
2023/10/06 12:36:08;;;;;;;;;;;;;;;18.53;100.00;101922.13;4946792;28;19931;-80
2023/10/06 12:38:53;;;;;;;;;;;;;;;18.46;100.00;101929.69;4946902;28;20483;-82
2023/10/06 12:41:46;;;;;;;;;;;;;;;18.41;100.00;101915.72;4946264;28;19935;-82
2023/10/06 12:44:33;;;;;;;;;;;;;;;18.40;100.00;101924.69;4944657;28;19963;-81
2023/10/06 12:47:18;;;;;;;;;;;;;;;18.40;100.00;101919.34;4931248;28;19935;-82
2023/10/06 12:50:05;;;;;;;;;;;;;;;18.43;100.00;101914.63;4945539;28;19966;-82
2023/10/06 12:52:54;;;;;;;;;;;;;;;18.46;100.00;101908.22;4924036;28;19926;-83
2023/10/06 12:55:43;;;;;;;;;;;;;;;18.48;100.00;101906.34;4945801;28;20270;-82
2023/10/06 12:58:28;;;;;;;;;;;;;;;18.53;100.00;101903.38;4930054;28;19985;-81
2023/10/06 13:01:14;;;;;;;;;;;;;;;18.59;100.00;101909.19;4936698;28;20063;-84
2023/10/06 13:04:00;;;;;;;;;;;;;;;18.65;100.00;101907.09;4947075;28;20816;-84
2023/10/06 13:06:48;;;;;;;;;;;;;;;18.64;100.00;101910.72;4946216;28;20378;-79
2023/10/06 13:09:39;;;;;;;;;;;;;;;18.61;100.00;101905.56;4944805;28;20024;-86
2023/10/06 13:12:28;;;;;;;;;;;;;;;18.58;100.00;101901.25;4945567;28;19949;-87
2023/10/06 13:15:17;;;;;;;;;;;;;;;18.56;100.00;101906.72;4929852;28;22250;-82
2023/10/06 13:18:03;;;;;;;;;;;;;;;18.56;100.00;101908.53;4933181;28;19934;-83
2023/10/06 13:20:48;;;;;;;;;;;;;;;18.56;100.00;101904.03;4944137;28;19957;-85
2023/10/06 13:23:34;;;;;;;;;;;;;;;18.53;100.00;101909.56;4947776;28;20389;-85
2023/10/06 13:26:20;;;;;;;;;;;;;;;18.53;100.00;101906.88;4948742;28;20034;-85
2023/10/06 13:29:08;;;;;;;;;;;;;;;18.52;100.00;101913.22;4941427;28;19931;-82
2023/10/06 13:31:56;;;;;;;;;;;;;;;18.53;100.00;101906.03;4936219;28;20373;-84
2023/10/06 13:34:42;;;;;;;;;;;;;;;18.56;100.00;101904.03;4947485;28;20751;-83
2023/10/06 13:37:28;;;;;;;;;;;;;;;18.59;100.00;101900.31;4948214;28;20283;-82
2023/10/06 13:40:15;;;;;;;;;;;;;;;18.58;100.00;101896.75;4934028;28;19985;-81
2023/10/06 13:43:01;;;;;;;;;;;;;;;18.57;100.00;101904.88;4934029;28;19938;-83
2023/10/06 13:45:48;;;;;;;;;;;;;;;18.55;100.00;101905.00;4947857;28;19984;-86
2023/10/06 13:48:34;;;;;;;;;;;;;;;18.48;100.00;101908.16;4947575;28;20386;-81
2023/10/06 13:51:27;;;;;;;;;;;;;;;18.37;100.00;101898.97;4947889;28;19930;-84
2023/10/06 13:54:13;;;;;;;;;;;;;;;18.26;100.00;101891.56;4940100;28;19934;-87
2023/10/06 13:57:03;;;;;;;;;;;;;;;18.17;100.00;101893.00;4930393;28;19930;-89
2023/10/06 13:59:49;;;;;;;;;;;;;;;18.14;100.00;101900.38;4948118;28;19930;-85
2023/10/06 14:02:36;;;;;;;;;;;;;;;18.14;100.00;101900.38;4948386;28;19926;-85
2023/10/06 14:05:21;;;;;;;;;;;;;;;18.13;100.00;101899.50;4932545;28;20452;-84
2023/10/06 14:08:08;;;;;;;;;;;;;;;18.13;100.00;101901.31;4949424;28;19926;-89
2023/10/06 14:10:53;;;;;;;;;;;;;;;18.12;100.00;101894.22;4948225;28;20411;-88
2023/10/06 14:13:43;;;;;;;;;;;;;;;18.12;100.00;101900.47;4936058;28;20064;-86
2023/10/06 14:16:32;;;;;;;;;;;;;;;18.12;100.00;101897.78;4947640;28;19984;-87
2023/10/06 14:19:18;;;;;;;;;;;;;;;18.11;100.00;101906.78;4947987;28;20289;-86
2023/10/06 14:22:05;;;;;;;;;;;;;;;18.10;100.00;101890.78;4933363;28;20042;-87
2023/10/06 14:24:53;;;;;;;;;;;;;;;18.07;100.00;101893.69;4948174;28;20004;-86